• Join FlightAware (Why Join?)
  • Login
  • US Flag 
02:54PM EDT


 

Airport Tracker/Info


-or-


 

Live Flight TrackerFlight Track Log ✈ TCF3494 ✈ 07-Jun-2013 ✈ KORD - KLGA

Flight Track Log - Related Links

Times and Time Zones

All times are in EDT time to prevent confusion due to time zone crossing. See the TCF3494 flight status page for this flight to view local times or setup timezone preferences in your user account.

Time Position Orientation Groundspeed Altitude Reporting Facility
EDT Latitude Longitude Course Direction KTS MPH feet Rate Location/Type
09:35PM 42.0000 -87.8833 90° East 153 176 1,700  Level Chicago TRACON
09:36PM 42.0000 -87.8167 90° East 211 243 3,800 1,680 Climbing Chicago TRACON
09:36PM 42.0072 -87.7900 70° East 197 227 4,100 1,920 Climbing Chicago Center
09:37PM 42.0111 -87.6889 87° East 255 293 6,400 2,640 Climbing Chicago Center
09:38PM 41.9455 -87.3034 95° East  Level FlightAware Approximate
09:38PM 42.0008 -87.5839 97° East 278 320 9,600  Level Chicago Center
09:39PM 41.9349 -87.1546 95° East  Level FlightAware Approximate
09:39PM 41.9889 -87.4744 98° East 291 335 12,300  Level Chicago Center
09:40PM 41.9333 -87.0051 90° East  Level FlightAware Approximate
09:40PM 41.9756 -87.3553 99° East 314 361 14,500  Level Chicago Center
09:41PM 41.9619 -87.2228 98° East 346 398 16,400 2,160 Climbing Chicago Center
09:42PM 41.9453 -87.0536 97° East 374 430 19,000 2,280 Climbing Chicago Center
09:43PM 41.9464 -86.9058 89° East 392 451 21,200 1,980 Climbing Chicago Center
09:44PM 41.9492 -86.7561 89° East 402 463 23,100 1,740 Climbing Chicago Center
09:45PM 41.9497 -86.5911 90° East 415 478 24,900 1,500 Climbing Chicago Center
09:47PM 41.9525 -86.4297 89° East 429 494 26,300 1,320 Climbing Chicago Center
09:48PM 41.9547 -86.2633 89° East 441 507 27,700 1,320 Climbing Chicago Center
09:49PM 41.9444 -86.0956 95° East 448 516 29,100 1,140 Climbing Chicago Center
09:50PM 41.9281 -85.9278 97° East 452 520 30,100 1,080 Climbing Chicago Center
09:51PM 41.9125 -85.7575 97° East 457 526 31,400 1,140 Climbing Chicago Center
09:52PM 41.8931 -85.5503 97° East 461 531 32,500 840 Climbing Chicago Center
09:53PM 41.8767 -85.3753 97° East 465 535 33,200 720 Climbing Chicago Center
09:54PM 41.8592 -85.1975 97° East 472 543 34,000 360 Climbing Chicago Center
09:55PM 41.8411 -85.0236 98° East 470 541 34,000  Level Chicago Center
09:56PM 41.8228 -84.8506 98° East 470 541 34,000 240 Level Chicago Center
09:57PM 41.8039 -84.6761 98° East 472 543 34,500 480 Climbing Chicago Center
09:58PM 41.7858 -84.5047 98° East 466 536 35,000 240 Climbing Chicago Center
09:59PM 41.7764 -84.3281 94° East 473 544 35,000  Level Chicago Center
10:00PM 41.7767 -84.1486 90° East 482 555 35,000  Level Chicago Center
10:01PM 41.7750 -83.9322 91° East 484 557 35,000  Level Chicago Center
10:02PM 41.7736 -83.7556 91° East 478 550 35,000  Level Chicago Center
10:03PM 41.7650 -83.5592 93° East 480 552 35,000  Level Cleveland Center
10:04PM 41.7506 -83.3858 96° East 475 547 35,000  Level Cleveland Center
10:05PM 41.7378 -83.2239 96° East 481 554 35,000  Level Cleveland Center
10:06PM 41.7189 -83.0453 98° East 486 559 35,000  Level Cleveland Center
10:07PM 41.7017 -82.8608 97° East 486 559 35,000  Level Cleveland Center
10:09PM 41.6728 -82.5014 96° East 486 559 35,000  Level Cleveland Center
10:10PM 41.6569 -82.3200 97° East 486 559 35,000  Level Cleveland Center
10:11PM 41.6389 -82.1225 97° East 486 559 35,000  Level Cleveland Center
10:12PM 41.6247 -81.9414 96° East 486 559 35,000  Level Cleveland Center
10:14PM 41.5908 -81.5825 97° East 486 559 35,000  Level Cleveland Center
10:15PM 41.5756 -81.4214 97° East 486 559 35,000  Level Cleveland Center
10:17PM 41.5419 -81.0686 97° East 481 554 35,000  Level Cleveland Center
10:19PM 41.5342 -80.8428 93° East  Level FlightAware Approximate
10:20PM 41.4847 -80.5278 93° East 476 548 35,000  Level Cleveland Center
10:22PM 41.4641 -80.3036 97° East  Level FlightAware Approximate
10:23PM 41.4333 -80.0208 97° East 476 548 35,000  Level Cleveland Center
10:25PM 41.3933 -79.6586 98° East 470 541 35,000  Level Cleveland Center
10:27PM 41.3569 -79.3272 98° East 470 541 35,000 -300 Level Cleveland Center
10:29PM 41.3299 -79.1144 100° East  Level FlightAware Approximate
10:32PM 41.2600 -78.4914 95° East 474 545 33,000  Level New York Center
10:33PM 41.2392 -78.3289 100° East 469 540 33,000  Level New York Center
10:34PM 41.2169 -78.1525 99° East 474 545 33,000  Level New York Center
10:35PM 41.1942 -77.9789 100° East 474 545 33,000  Level New York Center
10:36PM 41.1977 -78.1008 95° East  Level FlightAware Approximate
10:36PM 41.1711 -77.8083 100° East 474 545 33,000  Level New York Center
10:37PM 41.1873 -77.9546 95° East  Level FlightAware Approximate
10:37PM 41.1500 -77.6353 99° East 474 545 33,000  Level New York Center
10:38PM 41.1286 -77.4622 99° East 474 545 32,000 -1,440 Descending New York Center
10:39PM 41.1050 -77.2864 100° East 474 545 30,200 -1,860 Descending New York Center
10:40PM 41.0814 -77.1106 100° East 474 545 28,300 -1,920 Descending New York Center
10:41PM 41.0572 -76.9322 100° East 474 545 26,500 -1,980 Descending New York Center
10:42PM 41.0333 -76.7486 100° East 468 539 24,500 -1,860 Descending New York Center
10:43PM 41.0019 -76.5861 104° East 463 533 22,800 -1,680 Descending New York Center
10:44PM 40.9656 -76.4347 108° East 451 519 21,200 -1,740 Descending New York Center
10:45PM 40.9308 -76.2861 107° East 438 504 19,400 -1,980 Descending New York Center
10:46PM 40.8958 -76.1406 108° East 416 479 17,300 -1,980 Descending New York Center
10:47PM 40.8625 -76.0036 108° East 404 465 15,500 -1,800 Descending New York Center
10:48PM 40.8289 -75.8664 108° East 393 452 13,700 -1,260 Descending New York Center
10:49PM 40.7967 -75.7381 108° East 382 440 13,000 -360 Descending New York Center
10:50PM 40.7642 -75.6178 110° East 369 425 13,000  Level New York Center
10:51PM 40.7289 -75.5111 114° Southeast 332 382 13,000 -60 Level New York Center
10:52PM 40.6956 -75.4050 112° Southeast 311 358 12,900 -600 Descending New York Center
10:53PM 40.6642 -75.3044 112° Southeast 306 352 11,900 -1,020 Descending New York Center
10:54PM 40.6306 -75.2036 114° Southeast 301 346 10,900 -900 Descending New York Center
10:55PM 40.6025 -75.1144 112° Southeast 301 346 10,100 -480 Descending New York Center
10:56PM 40.5669 -75.0056 113° Southeast 296 341 10,000 -60 Descending New York Center
10:57PM 40.5392 -74.9083 111° Southeast 291 335 10,000  Level New York Center
10:57PM 40.5167 -74.8500 117° Southeast 297 342 10,000  Level New York TRACON
10:59PM 40.4772 -74.7108 110° East 291 335 10,000  Level New York Center
10:59PM 40.4667 -74.6667 107° East 292 336 10,000  Level New York TRACON
11:00PM 40.4333 -74.5667 114° Southeast 290 334 10,000 -600 Level New York TRACON
11:01PM 40.4500 -74.4500 79° East 303 349 8,800 -1,440 Descending New York TRACON
11:02PM 40.4833 -74.3500 66° East 294 338 7,000 -960 Descending New York TRACON
11:03PM 40.5000 -74.2500 78° East 269 310 6,900 -60 Descending New York TRACON
11:04PM 40.5333 -74.1667 62° Northeast 247 284 6,900 -960 Level New York TRACON
11:05PM 40.5667 -74.0833 62° Northeast 244 281 5,000 -1,980 Descending New York TRACON
11:06PM 40.6000 -74.0167 57° Northeast 251 289 3,000 -1,320 Descending New York TRACON
11:07PM 40.6667 -73.9667 30° Northeast 240 276 2,300 -660 Descending New York TRACON